Time;durP1;ratioP1;P1;durP2;ratioP2;P2;SDS_P1;SDS_P2;PMS_P1;PMS_P2;Temp;Humidity;BMP_temperature;BMP_pressure;BME280_temperature;BME280_humidity;BME280_pressure;Samples;Min_cycle;Max_cycle;Signal;HPM_P1;HPM_P2
2023/08/26 00:01:32;;;;;;;0.93;0.93;;;;;;;9.47;100.00;99001.66;7400848;19;20070;-52
2023/08/26 00:03:58;;;;;;;0.22;0.22;;;;;;;10.71;100.00;98999.44;7398998;19;20028;-51
2023/08/26 00:06:24;;;;;;;0.20;0.20;;;;;;;9.44;100.00;99001.88;7397267;19;20014;-52
2023/08/26 00:08:52;;;;;;;0.40;0.40;;;;;;;9.34;100.00;98992.13;7398053;19;20110;-52
2023/08/26 00:11:18;;;;;;;0.80;0.75;;;;;;;9.55;100.00;98988.09;7398467;19;20048;-53
2023/08/26 00:13:44;;;;;;;1.70;0.57;;;;;;;9.92;100.00;98991.72;7401288;19;20021;-53
2023/08/26 00:16:12;;;;;;;0.15;0.15;;;;;;;9.98;100.00;99000.91;7398505;19;20011;-52
2023/08/26 00:18:38;;;;;;;0.35;0.25;;;;;;;10.01;100.00;98999.13;7398753;19;20017;-51
2023/08/26 00:21:05;;;;;;;0.40;0.30;;;;;;;9.98;100.00;98992.56;7397927;19;20014;-51
2023/08/26 00:23:31;;;;;;;0.40;0.22;;;;;;;9.92;100.00;98988.94;7398281;19;20011;-52
2023/08/26 00:25:57;;;;;;;0.55;0.55;;;;;;;9.93;100.00;98994.03;7399950;19;20021;-52
2023/08/26 00:28:23;;;;;;;0.63;0.40;;;;;;;9.88;100.00;98991.97;7396796;19;20020;-52
2023/08/26 00:30:57;;;;;;;3.53;0.73;;;;;;;9.83;100.00;98992.66;7395549;19;20011;-52
2023/08/26 00:33:24;;;;;;;3.03;1.27;;;;;;;9.80;100.00;98979.00;7396846;19;20018;-52
2023/08/26 00:35:50;;;;;;;0.40;0.40;;;;;;;9.73;100.00;98984.97;7396142;19;20107;-52
2023/08/26 00:38:16;;;;;;;0.85;0.40;;;;;;;9.68;100.00;98982.94;7400042;19;20380;-53
2023/08/26 00:40:42;;;;;;;6.40;0.70;;;;;;;9.62;100.00;98985.63;7397897;19;20013;-52
2023/08/26 00:43:09;;;;;;;0.40;0.40;;;;;;;9.62;100.00;98984.88;7397098;19;20027;-52
2023/08/26 00:45:42;;;;;;;1.10;0.55;;;;;;;9.60;100.00;98982.59;7394672;19;20010;-52
2023/08/26 00:48:11;;;;;;;1.23;0.70;;;;;;;9.61;100.00;98977.78;7395612;19;20030;-52
2023/08/26 00:50:39;;;;;;;0.65;0.40;;;;;;;9.60;100.00;98981.81;7397400;19;20007;-52
2023/08/26 00:53:07;;;;;;;0.77;0.43;;;;;;;9.58;100.00;98979.53;7401883;19;20340;-52
2023/08/26 00:55:36;;;;;;;2.08;0.43;;;;;;;9.54;100.00;98972.66;7395798;19;20383;-52
2023/08/26 00:58:04;;;;;;;0.43;0.43;;;;;;;9.55;100.00;98979.75;7398187;19;20023;-52
2023/08/26 01:00:32;;;;;;;0.47;0.40;;;;;;;9.56;100.00;98978.50;7394956;19;20474;-53
2023/08/26 01:02:59;;;;;;;0.32;0.32;;;;;;;9.52;100.00;98975.16;7396146;19;20010;-51
2023/08/26 01:05:26;;;;;;;0.30;0.30;;;;;;;9.47;100.00;98975.88;7394174;19;20021;-52
2023/08/26 01:07:53;;;;;;;0.45;0.45;;;;;;;9.42;100.00;98973.81;7396877;19;20070;-52
2023/08/26 01:10:24;;;;;;;3.03;0.50;;;;;;;9.33;100.00;98968.41;7397073;19;20048;-52
2023/08/26 01:13:01;;;;;;;0.20;0.20;;;;;;;9.29;100.00;98967.84;7399993;19;20006;-52
2023/08/26 01:15:29;;;;;;;0.43;0.43;;;;;;;9.27;100.00;98959.25;7396007;19;20459;-52
2023/08/26 01:17:56;;;;;;;1.00;0.73;;;;;;;9.22;100.00;98966.25;7397190;19;20014;-52
2023/08/26 01:20:24;;;;;;;0.70;0.70;;;;;;;9.20;100.00;98970.78;7395434;19;20074;-52
2023/08/26 01:22:55;;;;;;;0.20;0.20;;;;;;;9.16;100.00;98968.97;7400296;19;20054;-51
2023/08/26 01:25:21;;;;;;;0.70;0.70;;;;;;;9.14;100.00;98974.25;7393327;19;20078;-51
2023/08/26 01:27:47;;;;;;;0.60;0.60;;;;;;;9.13;100.00;98971.97;7397075;19;20007;-51
2023/08/26 01:30:13;;;;;;;0.95;0.60;;;;;;;9.14;100.00;98971.47;7395166;19;20497;-51
2023/08/26 01:32:48;;;;;;;0.30;0.30;;;;;;;9.22;100.00;98974.59;7397880;19;20077;-52
2023/08/26 01:35:22;;;;;;;0.93;0.50;;;;;;;9.31;100.00;98976.47;7395798;19;20010;-52
2023/08/26 01:37:49;;;;;;;0.40;0.40;;;;;;;9.41;100.00;98980.59;7394924;19;20038;-51
2023/08/26 01:40:18;;;;;;;5.53;0.90;;;;;;;9.46;100.00;98971.56;7394508;19;20003;-52
2023/08/26 01:42:46;;;;;;;8.88;1.05;;;;;;;9.45;100.00;98970.03;7399336;19;20038;-52
2023/08/26 01:45:12;;;;;;;0.30;0.30;;;;;;;9.43;100.00;98972.53;7393459;19;20031;-53
2023/08/26 01:47:38;;;;;;;0.40;0.40;;;;;;;9.32;100.00;98964.09;7394478;19;20446;-52
2023/08/26 01:50:05;;;;;;;0.45;0.45;;;;;;;9.23;100.00;98965.00;7394551;19;20336;-52
2023/08/26 01:52:31;;;;;;;1.30;1.00;;;;;;;9.18;100.00;98962.16;7397097;19;20007;-52
2023/08/26 01:54:57;;;;;;;0.55;0.55;;;;;;;8.93;100.00;98953.28;7394313;19;20351;-52
2023/08/26 01:57:23;;;;;;;0.25;0.20;;;;;;;8.43;100.00;98962.94;7396363;19;20014;-52
2023/08/26 01:59:50;;;;;;;1.02;0.57;;;;;;;8.24;100.00;98965.19;7395171;19;20046;-52
2023/08/26 02:02:16;;;;;;;0.28;0.28;;;;;;;8.19;100.00;98973.41;7394897;19;20037;-52
2023/08/26 02:04:43;;;;;;;0.40;0.40;;;;;;;8.15;100.00;98967.28;7393282;19;20050;-52
2023/08/26 02:07:09;;;;;;;0.30;0.30;;;;;;;8.11;100.00;98961.19;7393115;19;20014;-52
2023/08/26 02:09:37;;;;;;;0.45;0.35;;;;;;;8.64;100.00;98961.72;7393240;19;20382;-52
2023/08/26 02:12:03;;;;;;;1.85;0.30;;;;;;;8.71;100.00;98958.56;7394832;19;20074;-53
2023/08/26 02:14:29;;;;;;;0.30;0.30;;;;;;;8.71;100.00;98958.56;7392214;19;20010;-52
2023/08/26 02:16:55;;;;;;;0.55;0.55;;;;;;;8.81;100.00;98953.63;7394838;19;20014;-52
2023/08/26 02:19:22;;;;;;;0.50;0.30;;;;;;;8.77;100.00;98967.72;7394849;19;20014;-52
2023/08/26 02:21:48;;;;;;;0.68;0.47;;;;;;;8.81;100.00;98973.06;7395011;19;20478;-51
2023/08/26 02:24:21;;;;;;;0.43;0.28;;;;;;;8.86;100.00;98970.34;7391636;19;20403;-53
2023/08/26 02:26:47;;;;;;;0.30;0.30;;;;;;;8.84;100.00;98961.75;7392985;19;20402;-52
2023/08/26 02:29:13;;;;;;;1.05;1.02;;;;;;;8.89;100.00;98969.41;7392674;19;20490;-52
2023/08/26 02:31:39;;;;;;;0.40;0.40;;;;;;;8.91;100.00;98966.91;7393334;19;20014;-52
2023/08/26 02:34:05;;;;;;;0.40;0.40;;;;;;;9.02;100.00;98960.72;7394117;19;20022;-52
2023/08/26 02:36:31;;;;;;;0.38;0.30;;;;;;;9.08;100.00;98967.09;7392276;19;20348;-52
2023/08/26 02:38:57;;;;;;;0.45;0.45;;;;;;;9.08;100.00;98959.53;7394554;19;20015;-52
2023/08/26 02:41:24;;;;;;;0.50;0.50;;;;;;;9.09;100.00;98955.53;7392983;19;20038;-52
2023/08/26 02:43:50;;;;;;;0.55;0.55;;;;;;;9.05;100.00;98954.94;7394784;19;20074;-52
2023/08/26 02:46:16;;;;;;;0.43;0.43;;;;;;;9.04;100.00;98947.88;7390984;19;20344;-52
2023/08/26 02:48:42;;;;;;;6.95;0.95;;;;;;;9.04;100.00;98958.97;7393741;19;20007;-52
2023/08/26 02:51:08;;;;;;;1.17;0.50;;;;;;;9.07;100.00;98952.44;7393522;19;20342;-52
2023/08/26 02:53:35;;;;;;;1.10;0.88;;;;;;;9.02;100.00;98955.94;7392230;19;20018;-53
2023/08/26 02:56:01;;;;;;;0.40;0.40;;;;;;;8.98;100.00;98952.59;7393234;19;20070;-53
2023/08/26 02:58:27;;;;;;;1.17;0.47;;;;;;;9.00;100.00;98952.88;7397040;19;20447;-53
2023/08/26 03:00:57;;;;;;;0.15;0.15;;;;;;;8.98;100.00;98947.06;7393510;19;20405;-53
2023/08/26 03:03:23;;;;;;;2.28;0.35;;;;;;;8.97;100.00;98939.97;7393561;19;20014;-53
2023/08/26 03:05:49;;;;;;;1.15;0.43;;;;;;;9.05;100.00;98935.50;7391362;19;20015;-53
2023/08/26 03:08:15;;;;;;;1.85;0.50;;;;;;;9.00;100.00;98936.22;7392651;19;20011;-53
2023/08/26 03:10:41;;;;;;;0.28;0.28;;;;;;;9.02;100.00;98933.72;7392661;19;20538;-53
2023/08/26 03:13:07;;;;;;;0.20;0.20;;;;;;;9.01;100.00;98937.72;7391828;19;20009;-53
2023/08/26 03:15:35;;;;;;;0.50;0.40;;;;;;;9.00;100.00;98930.66;7391734;19;20019;-53
2023/08/26 03:18:01;;;;;;;0.28;0.28;;;;;;;8.94;100.00;98932.59;7399341;19;20019;-53
2023/08/26 03:20:27;;;;;;;1.05;0.57;;;;;;;8.92;100.00;98939.91;7399188;19;20027;-52
2023/08/26 03:22:53;;;;;;;0.25;0.25;;;;;;;8.88;100.00;98934.53;7403905;19;20347;-53
2023/08/26 03:25:19;;;;;;;0.70;0.68;;;;;;;8.86;100.00;98927.94;7397395;19;20010;-53
2023/08/26 03:27:45;;;;;;;0.30;0.30;;;;;;;8.92;100.00;98918.44;7399933;19;20038;-53
2023/08/26 03:30:12;;;;;;;0.28;0.20;;;;;;;8.88;100.00;98917.16;7399067;19;20047;-53
2023/08/26 03:32:38;;;;;;;0.73;0.70;;;;;;;8.86;100.00;98911.28;7399156;19;20022;-53
2023/08/26 03:35:05;;;;;;;0.10;0.10;;;;;;;8.89;100.00;98919.41;7400180;19;20006;-52
2023/08/26 03:37:31;;;;;;;0.70;0.70;;;;;;;8.92;100.00;98920.47;7398615;19;20364;-52
2023/08/26 03:39:59;;;;;;;0.38;0.25;;;;;;;8.92;100.00;98923.97;7398635;19;20541;-52
2023/08/26 03:42:27;;;;;;;2.92;0.60;;;;;;;8.95;100.00;98934.13;7399501;19;20455;-52
2023/08/26 03:44:53;;;;;;;0.30;0.30;;;;;;;8.90;100.00;98932.03;7398954;19;20015;-52
2023/08/26 03:47:19;;;;;;;1.15;0.85;;;;;;;8.91;100.00;98928.03;7398693;19;20018;-53
2023/08/26 03:49:45;;;;;;;0.10;0.10;;;;;;;8.91;100.00;98930.81;7398711;19;20345;-52
2023/08/26 03:52:11;;;;;;;0.75;0.40;;;;;;;8.89;100.00;98924.97;7401153;19;20010;-52
2023/08/26 03:54:37;;;;;;;0.30;0.25;;;;;;;8.83;100.00;98932.47;7400928;19;20070;-53
2023/08/26 03:57:04;;;;;;;0.85;0.30;;;;;;;8.79;100.00;98926.34;7401380;19;20019;-53
2023/08/26 03:59:30;;;;;;;10.25;0.85;;;;;;;8.76;100.00;98926.56;7399765;19;20467;-53
2023/08/26 04:01:56;;;;;;;0.30;0.30;;;;;;;8.70;100.00;98920.97;7398366;19;20017;-52
2023/08/26 04:04:22;;;;;;;0.43;0.43;;;;;;;8.67;100.00;98921.16;7398409;19;20678;-52
2023/08/26 04:06:48;;;;;;;1.40;0.30;;;;;;;8.90;100.00;98915.38;7398832;19;20018;-52
2023/08/26 04:09:15;;;;;;;0.60;0.40;;;;;;;9.20;100.00;98912.44;7397482;19;20007;-52
2023/08/26 04:11:42;;;;;;;1.25;0.65;;;;;;;8.68;100.00;98909.59;7398986;19;20042;-52
2023/08/26 04:14:08;;;;;;;0.30;0.30;;;;;;;8.60;100.00;98908.44;7397763;19;20006;-51
2023/08/26 04:16:35;;;;;;;0.80;0.43;;;;;;;8.55;100.00;98911.94;7395974;19;20018;-52
2023/08/26 04:19:01;;;;;;;0.80;0.57;;;;;;;8.56;100.00;98910.66;7398411;19;20014;-52
2023/08/26 04:21:27;;;;;;;0.45;0.40;;;;;;;8.56;100.00;98909.91;7399941;19;20017;-51
2023/08/26 04:23:54;;;;;;;0.35;0.20;;;;;;;8.56;100.00;98907.88;7398411;19;20023;-51
2023/08/26 04:26:21;;;;;;;0.30;0.30;;;;;;;8.62;100.00;98905.94;7394950;19;20011;-52
2023/08/26 04:28:47;;;;;;;0.75;0.30;;;;;;;8.70;100.00;98909.84;7395625;19;20368;-51
2023/08/26 04:31:13;;;;;;;1.23;0.30;;;;;;;8.69;100.00;98919.41;7399743;19;20010;-52
2023/08/26 04:33:40;;;;;;;0.20;0.20;;;;;;;8.78;100.00;98916.50;7396776;19;20011;-53
2023/08/26 04:36:06;;;;;;;0.63;0.63;;;;;;;9.03;100.00;98907.47;7395947;19;20022;-52
2023/08/26 04:38:33;;;;;;;0.85;0.50;;;;;;;8.88;100.00;98901.22;7398198;19;20011;-52
2023/08/26 04:41:01;;;;;;;2.15;0.47;;;;;;;8.84;100.00;98905.47;7396327;19;20040;-52
2023/08/26 04:43:28;;;;;;;1.33;0.80;;;;;;;8.80;100.00;98908.47;7397424;19;20021;-52
2023/08/26 04:45:55;;;;;;;0.82;0.38;;;;;;;8.76;100.00;98910.69;7394598;19;20014;-52
2023/08/26 04:48:21;;;;;;;1.67;0.47;;;;;;;9.05;100.00;98916.06;7397423;19;20022;-52
2023/08/26 04:50:47;;;;;;;0.85;0.35;;;;;;;8.94;100.00;98910.38;7396344;19;20018;-52
2023/08/26 04:53:13;;;;;;;7.90;0.95;;;;;;;8.74;100.00;98912.41;7396224;19;20038;-52
2023/08/26 04:55:40;;;;;;;1.27;0.43;;;;;;;8.70;100.00;98906.31;7395229;19;20014;-52
2023/08/26 04:58:08;;;;;;;1.20;0.93;;;;;;;8.77;100.00;98917.00;7399264;19;20034;-52
2023/08/26 05:00:34;;;;;;;0.45;0.43;;;;;;;10.90;100.00;98911.44;7396296;19;20025;-52
2023/08/26 05:03:00;;;;;;;1.40;0.75;;;;;;;8.94;100.00;98915.94;7395619;19;20014;-52
2023/08/26 05:05:26;;;;;;;10.07;0.30;;;;;;;8.58;100.00;98921.28;7397004;19;20047;-52
2023/08/26 05:07:52;;;;;;;0.30;0.30;;;;;;;8.46;100.00;98934.25;7395572;19;20160;-52
2023/08/26 05:10:19;;;;;;;0.13;0.13;;;;;;;10.25;100.00;98930.84;7395480;19;20014;-52
2023/08/26 05:12:46;;;;;;;0.17;0.15;;;;;;;8.67;100.00;98924.69;7395587;19;20014;-52
2023/08/26 05:15:12;;;;;;;0.20;0.15;;;;;;;8.53;100.00;98925.53;7396957;19;20019;-52
2023/08/26 05:17:40;;;;;;;0.60;0.60;;;;;;;8.51;100.00;98922.44;7398220;19;20090;-52
2023/08/26 05:20:07;;;;;;;0.38;0.38;;;;;;;8.53;100.00;98931.06;7394962;19;20018;-52
2023/08/26 05:22:33;;;;;;;1.65;0.50;;;;;;;8.67;100.00;98930.25;7397916;19;20548;-52
2023/08/26 05:24:59;;;;;;;0.43;0.30;;;;;;;8.68;100.00;98937.34;7393734;19;20010;-52
2023/08/26 05:27:27;;;;;;;0.57;0.38;;;;;;;8.76;100.00;98934.91;7395377;19;20021;-52
2023/08/26 05:29:54;;;;;;;5.00;0.50;;;;;;;8.87;100.00;98933.03;7397114;19;20031;-51
2023/08/26 05:32:21;;;;;;;0.55;0.20;;;;;;;9.10;100.00;98934.81;7395637;19;20034;-52
2023/08/26 05:34:47;;;;;;;0.30;0.17;;;;;;;9.41;100.00;98931.34;7395451;19;20459;-51
2023/08/26 05:37:14;;;;;;;0.32;0.32;;;;;;;9.29;100.00;98934.50;7394934;19;20010;-52
2023/08/26 05:39:40;;;;;;;1.10;0.45;;;;;;;9.42;100.00;98932.13;7392585;19;20021;-52
2023/08/26 05:42:06;;;;;;;1.23;0.60;;;;;;;9.53;100.00;98940.56;7397725;19;20033;-52
2023/08/26 05:44:33;;;;;;;0.98;0.38;;;;;;;9.79;100.00;98932.97;7393851;19;20037;-52
2023/08/26 05:46:59;;;;;;;0.30;0.30;;;;;;;9.66;100.00;98933.34;7394714;19;20062;-52
2023/08/26 05:49:25;;;;;;;0.90;0.68;;;;;;;9.59;100.00;98930.28;7395055;19;20040;-52
2023/08/26 05:51:51;;;;;;;0.45;0.43;;;;;;;9.62;100.00;98934.84;7396405;19;20481;-52
2023/08/26 05:54:18;;;;;;;0.50;0.50;;;;;;;9.68;100.00;98944.00;7394352;19;20022;-53
2023/08/26 05:56:44;;;;;;;0.73;0.45;;;;;;;9.78;100.00;98932.22;7395715;19;20034;-52
2023/08/26 05:59:10;;;;;;;0.30;0.30;;;;;;;9.93;100.00;98938.41;7394604;19;20011;-52
2023/08/26 06:01:37;;;;;;;0.98;0.40;;;;;;;9.92;100.00;98936.09;7394290;19;20031;-52
2023/08/26 06:04:04;;;;;;;0.25;0.25;;;;;;;10.09;100.00;98934.22;7393950;19;20490;-53
2023/08/26 06:06:30;;;;;;;0.38;0.38;;;;;;;10.20;100.00;98934.34;7393281;19;20025;-52
2023/08/26 06:08:57;;;;;;;0.13;0.13;;;;;;;10.30;100.00;98944.03;7394961;19;20015;-53
2023/08/26 06:11:24;;;;;;;0.95;0.60;;;;;;;10.26;100.00;98935.16;7393065;19;20011;-52
2023/08/26 06:13:51;;;;;;;0.47;0.30;;;;;;;10.31;100.00;98939.97;7396351;19;20023;-52
2023/08/26 06:16:20;;;;;;;2.92;0.40;;;;;;;10.39;100.00;98929.94;7396118;19;20015;-52
2023/08/26 06:18:47;;;;;;;0.30;0.30;;;;;;;10.55;100.00;98932.03;7398100;19;20006;-52
2023/08/26 06:21:14;;;;;;;3.05;0.50;;;;;;;10.62;100.00;98926.00;7395859;19;20031;-53
2023/08/26 06:23:41;;;;;;;0.63;0.63;;;;;;;10.70;100.00;98923.50;7397796;19;20356;-52
2023/08/26 06:26:07;;;;;;;1.38;0.38;;;;;;;10.75;100.00;98927.56;7394871;19;20070;-53
2023/08/26 06:28:33;;;;;;;1.80;0.57;;;;;;;10.81;100.00;98929.13;7395575;19;20006;-52
2023/08/26 06:31:01;;;;;;;0.88;0.35;;;;;;;10.91;100.00;98932.47;7395579;19;20017;-52
2023/08/26 06:33:32;;;;;;;0.30;0.30;;;;;;;10.99;100.00;98922.34;7396084;19;20366;-54
2023/08/26 06:35:58;;;;;;;3.50;0.80;;;;;;;11.33;100.00;98929.56;7396773;19;20021;-52
2023/08/26 06:38:24;;;;;;;0.40;0.28;;;;;;;11.28;100.00;98930.31;7396724;19;20017;-54
2023/08/26 06:40:57;;;;;;;1.23;0.10;;;;;;;11.79;100.00;98921.56;7395908;19;20348;-53
2023/08/26 06:43:24;;;;;;;0.20;0.20;;;;;;;11.56;100.00;98927.59;7396919;19;20106;-53
2023/08/26 06:45:50;;;;;;;1.75;0.75;;;;;;;11.70;100.00;98932.19;7393899;19;20021;-53
2023/08/26 06:48:17;;;;;;;0.65;0.45;;;;;;;11.78;100.00;98925.59;7395264;19;20010;-53
2023/08/26 06:50:50;;;;;;;0.20;0.20;;;;;;;11.89;100.00;98928.41;7396387;19;20019;-53
2023/08/26 06:53:23;;;;;;;0.77;0.43;;;;;;;11.88;100.00;98935.25;7403057;19;20444;-53
2023/08/26 06:55:52;;;;;;;0.82;0.17;;;;;;;11.85;100.00;98933.47;7402068;19;20014;-53
2023/08/26 06:58:19;;;;;;;2.17;0.50;;;;;;;11.84;100.00;98937.53;7404266;19;20011;-53
2023/08/26 07:00:46;;;;;;;8.00;0.57;;;;;;;12.05;100.00;98938.03;7404371;19;20014;-53
2023/08/26 07:03:12;;;;;;;0.73;0.57;;;;;;;12.15;100.00;98933.72;7400202;19;20007;-53
2023/08/26 07:05:42;;;;;;;3.63;0.35;;;;;;;11.95;100.00;98934.00;7400686;19;20485;-53
2023/08/26 07:08:08;;;;;;;0.55;0.20;;;;;;;11.97;100.00;98934.25;7400913;19;20015;-53
2023/08/26 07:10:35;;;;;;;0.63;0.50;;;;;;;12.03;100.00;98930.19;7400430;19;20360;-53
2023/08/26 07:13:01;;;;;;;0.20;0.20;;;;;;;12.20;100.00;98938.53;7403675;19;20511;-53
2023/08/26 07:15:27;;;;;;;0.82;0.52;;;;;;;12.41;100.00;98941.84;7400225;19;20085;-53
2023/08/26 07:17:53;;;;;;;0.70;0.63;;;;;;;12.46;100.00;98935.47;7400467;19;20010;-53
2023/08/26 07:20:20;;;;;;;0.77;0.73;;;;;;;12.45;100.00;98933.94;7400706;19;20074;-53
2023/08/26 07:22:46;;;;;;;1.65;0.80;;;;;;;12.28;100.00;98933.97;7404027;19;20014;-52
2023/08/26 07:25:12;;;;;;;2.05;0.88;;;;;;;12.40;100.00;98937.50;7401629;19;20018;-53
2023/08/26 07:27:39;;;;;;;0.52;0.35;;;;;;;12.27;100.00;98928.88;7404140;19;20014;-53
2023/08/26 07:30:06;;;;;;;0.22;0.22;;;;;;;12.25;100.00;98937.03;7401083;19;20018;-53
2023/08/26 07:32:32;;;;;;;0.40;0.30;;;;;;;12.26;100.00;98944.13;7402754;19;20014;-53
2023/08/26 07:34:58;;;;;;;2.05;0.63;;;;;;;12.71;100.00;98940.72;7403944;19;20006;-53
2023/08/26 07:37:25;;;;;;;0.52;0.30;;;;;;;12.94;100.00;98941.44;7403750;19;20025;-53
2023/08/26 07:39:51;;;;;;;2.72;1.10;;;;;;;12.74;100.00;98944.53;7404051;19;20018;-53
2023/08/26 07:42:17;;;;;;;0.43;0.43;;;;;;;12.85;100.00;98950.09;7403106;19;20044;-53
2023/08/26 07:44:43;;;;;;;0.75;0.52;;;;;;;13.08;100.00;98948.75;7399636;19;20017;-53
2023/08/26 07:47:09;;;;;;;0.57;0.40;;;;;;;12.96;100.00;98944.47;7402218;19;20100;-53
2023/08/26 07:49:35;;;;;;;0.25;0.20;;;;;;;13.53;100.00;98952.88;7403720;19;20019;-52
2023/08/26 07:52:02;;;;;;;1.42;0.50;;;;;;;13.16;100.00;98957.38;7401163;19;20017;-53
2023/08/26 07:54:28;;;;;;;0.20;0.20;;;;;;;13.27;100.00;98952.50;7398459;19;20010;-53
2023/08/26 07:56:55;;;;;;;0.57;0.30;;;;;;;13.29;100.00;98955.53;7399423;19;20110;-53
2023/08/26 07:59:21;;;;;;;1.30;0.52;;;;;;;13.35;100.00;98953.47;7397954;19;20092;-53
2023/08/26 08:01:47;;;;;;;0.10;0.10;;;;;;;13.34;100.00;98954.72;7398667;19;20034;-53
2023/08/26 08:04:13;;;;;;;2.05;0.73;;;;;;;13.31;100.00;98958.59;7396336;19;20021;-53
2023/08/26 08:06:40;;;;;;;1.23;1.13;;;;;;;13.26;100.00;98956.56;7398816;19;20018;-53
2023/08/26 08:09:06;;;;;;;3.35;0.68;;;;;;;14.09;100.00;98958.06;7397404;19;20473;-54
2023/08/26 08:11:32;;;;;;;0.38;0.38;;;;;;;14.25;100.00;98948.78;7397888;19;20006;-53
2023/08/26 08:13:58;;;;;;;0.20;0.20;;;;;;;14.82;100.00;98948.47;7397189;19;20427;-53
2023/08/26 08:16:24;;;;;;;0.75;0.50;;;;;;;14.85;100.00;98955.84;7398332;19;20043;-53
2023/08/26 08:18:51;;;;;;;0.10;0.00;;;;;;;15.38;100.00;98950.59;7398665;19;20006;-53
2023/08/26 08:21:17;;;;;;;1.52;0.20;;;;;;;13.97;100.00;98956.66;7398804;19;20010;-53
2023/08/26 08:23:45;;;;;;;0.75;0.40;;;;;;;13.65;100.00;98954.31;7398074;19;20055;-53
2023/08/26 08:26:12;;;;;;;0.52;0.20;;;;;;;14.33;100.00;98949.75;7394459;19;20011;-52
2023/08/26 08:28:38;;;;;;;1.10;0.30;;;;;;;14.11;100.00;98953.47;7397726;19;20351;-53
2023/08/26 08:31:04;;;;;;;1.75;0.32;;;;;;;14.13;100.00;98950.16;7396516;19;20038;-54
2023/08/26 08:33:33;;;;;;;0.25;0.20;;;;;;;14.38;100.00;98954.53;7403128;19;20014;-53
2023/08/26 08:36:00;;;;;;;0.40;0.15;;;;;;;14.59;100.00;98958.41;7398524;19;20031;-53
2023/08/26 08:38:26;;;;;;;0.55;0.13;;;;;;;14.66;100.00;98959.88;7399339;19;20086;-53
2023/08/26 08:40:52;;;;;;;0.40;0.32;;;;;;;14.85;100.00;98955.84;7398046;19;20339;-54
2023/08/26 08:43:21;;;;;;;0.15;0.10;;;;;;;14.97;100.00;98957.22;7400668;19;20007;-54
2023/08/26 08:45:50;;;;;;;0.25;0.10;;;;;;;15.02;100.00;98961.25;7396164;19;20052;-53
2023/08/26 08:48:17;;;;;;;1.50;0.30;;;;;;;14.96;100.00;98954.97;7395726;19;20019;-54
2023/08/26 08:50:43;;;;;;;0.10;0.10;;;;;;;14.84;100.00;98970.38;7397676;19;20011;-53
2023/08/26 08:53:11;;;;;;;0.20;0.10;;;;;;;14.83;100.00;98969.63;7401128;19;20038;-54
2023/08/26 08:55:38;;;;;;;0.15;0.10;;;;;;;14.93;100.00;98967.97;7395780;19;20023;-53
2023/08/26 08:58:04;;;;;;;0.22;0.20;;;;;;;14.91;100.00;98970.56;7400180;19;20034;-54
2023/08/26 09:00:31;;;;;;;0.68;0.20;;;;;;;14.81;100.00;98968.63;7395854;19;20447;-54
2023/08/26 09:02:59;;;;;;;0.60;0.40;;;;;;;14.73;100.00;98965.66;7398750;19;20019;-54
2023/08/26 09:05:26;;;;;;;0.95;0.30;;;;;;;14.57;100.00;98969.41;7396406;19;20026;-54
2023/08/26 09:07:53;;;;;;;0.75;0.10;;;;;;;14.51;100.00;98977.06;7396116;19;20339;-54
2023/08/26 09:10:20;;;;;;;0.13;0.03;;;;;;;14.60;100.00;98985.13;7396703;19;20070;-54
2023/08/26 09:12:47;;;;;;;0.22;0.22;;;;;;;14.36;100.00;98979.50;7400381;19;20007;-54
2023/08/26 09:15:13;;;;;;;0.35;0.10;;;;;;;14.21;100.00;98982.66;7394743;19;20010;-54
2023/08/26 09:17:44;;;;;;;0.20;0.20;;;;;;;14.12;100.00;98990.63;7396854;19;20408;-54
2023/08/26 09:20:11;;;;;;;0.20;0.20;;;;;;;15.09;100.00;98985.91;7397033;19;20337;-54
2023/08/26 09:22:37;;;;;;;0.10;0.10;;;;;;;15.15;100.00;98990.16;7400585;19;20021;-54
2023/08/26 09:25:04;;;;;;;0.55;0.20;;;;;;;15.29;100.00;98988.19;7395562;19;20027;-53
2023/08/26 09:27:40;;;;;;;0.10;0.10;;;;;;;16.85;100.00;98976.09;7395851;19;20081;-54
2023/08/26 09:30:07;;;;;;;0.38;0.17;;;;;;;16.25;100.00;98987.09;7397056;19;20014;-53
2023/08/26 09:32:39;;;;;;;0.10;0.10;;;;;;;14.75;100.00;98985.50;7398552;19;20007;-54
2023/08/26 09:35:13;;;;;;;0.30;0.10;;;;;;;14.74;100.00;98986.03;7396578;19;20011;-54
2023/08/26 09:37:41;;;;;;;0.20;0.15;;;;;;;14.98;100.00;98992.41;7394154;19;20017;-54
2023/08/26 09:40:12;;;;;;;0.17;0.17;;;;;;;14.88;100.00;98982.81;7396187;19;20375;-54
2023/08/26 09:42:39;;;;;;;0.30;0.20;;;;;;;14.83;100.00;98980.84;7399384;19;20463;-54
2023/08/26 09:45:10;;;;;;;0.00;0.00;;;;;;;15.59;100.00;98990.91;7395526;19;20019;-54
2023/08/26 09:47:37;;;;;;;0.17;0.10;;;;;;;15.61;100.00;98986.28;7395860;19;20014;-54
2023/08/26 09:50:07;;;;;;;0.10;0.00;;;;;;;15.33;100.00;98982.31;7394775;19;20069;-54
2023/08/26 09:52:46;;;;;;;0.43;0.13;;;;;;;15.97;100.00;98991.63;7398008;19;20007;-54
2023/08/26 09:55:13;;;;;;;0.20;0.20;;;;;;;16.58;100.00;98997.06;7395332;19;20020;-54
2023/08/26 09:57:40;;;;;;;0.20;0.10;;;;;;;17.53;100.00;98985.50;7398411;19;20026;-54
2023/08/26 10:00:11;;;;;;;0.10;0.10;;;;;;;16.11;100.00;98984.78;7394581;19;20014;-55
2023/08/26 10:02:50;;;;;;;0.52;0.20;;;;;;;16.56;100.00;98980.75;7397718;19;20020;-53
2023/08/26 10:05:18;;;;;;;0.85;0.10;;;;;;;16.49;100.00;98989.78;7393932;19;20007;-52
2023/08/26 10:07:49;;;;;;;0.17;0.17;;;;;;;15.58;100.00;98987.34;7394191;19;20037;-53
2023/08/26 10:10:31;;;;;;;0.52;0.10;;;;;;;15.33;100.00;98985.09;7394587;19;20019;-62
2023/08/26 10:13:02;;;;;;;1.75;0.38;;;;;;;15.69;100.00;98986.44;7396670;19;20010;-61
2023/08/26 10:15:34;;;;;;;0.60;0.38;;;;;;;15.33;100.00;98987.91;7394435;19;20510;-61
2023/08/26 10:18:22;;;;;;;0.52;0.52;;;;;;;15.26;100.00;98988.50;7394540;19;20018;-61
2023/08/26 10:20:50;;;;;;;0.20;0.20;;;;;;;15.26;100.00;98994.13;7394479;19;20359;-61
2023/08/26 10:23:16;;;;;;;0.55;0.13;;;;;;;15.48;100.00;98993.88;7398014;19;20489;-61
2023/08/26 10:25:43;;;;;;;0.45;0.35;;;;;;;15.88;100.00;98993.56;7393169;19;20007;-62
2023/08/26 10:28:11;;;;;;;0.30;0.13;;;;;;;16.29;100.00;98993.16;7394382;19;20007;-61
2023/08/26 10:30:37;;;;;;;0.25;0.20;;;;;;;16.47;100.00;99000.81;7393236;19;20066;-62
2023/08/26 10:33:05;;;;;;;0.10;0.10;;;;;;;16.77;100.00;99002.59;7396784;19;20403;-61
2023/08/26 10:35:31;;;;;;;0.10;0.10;;;;;;;17.01;100.00;99008.03;7393043;19;20044;-61
2023/08/26 10:38:11;;;;;;;0.10;0.10;;;;;;;17.91;100.00;99006.41;7391843;19;20015;-61
2023/08/26 10:40:37;;;;;;;0.55;0.10;;;;;;;17.72;100.00;99000.19;7392814;19;20372;-62
2023/08/26 10:43:08;;;;;;;0.13;0.10;;;;;;;17.80;100.00;99000.31;7395366;19;20009;-62
2023/08/26 10:45:48;;;;;;;0.15;0.10;;;;;;;17.67;100.00;98995.44;7391228;19;20049;-63
2023/08/26 10:48:15;;;;;;;0.60;0.10;;;;;;;17.67;100.00;99000.34;7392757;19;20014;-65
2023/08/26 10:50:46;;;;;;;0.45;0.17;;;;;;;17.63;100.00;98997.84;7394005;19;20042;-63
2023/08/26 10:53:22;;;;;;;0.10;0.10;;;;;;;17.27;100.00;99005.22;7397558;19;20010;-64
2023/08/26 10:55:52;;;;;;;0.43;0.20;;;;;;;17.06;100.00;99010.00;7393271;19;20086;-64
2023/08/26 10:58:19;;;;;;;0.70;0.28;;;;;;;17.25;100.00;99011.41;7397502;19;20031;-65
2023/08/26 11:00:48;;;;;;;0.28;0.28;;;;;;;17.05;100.00;99016.91;7393434;19;20010;-64
2023/08/26 11:03:17;;;;;;;0.20;0.17;;;;;;;16.78;100.00;99021.75;7396956;19;20031;-63
2023/08/26 11:05:45;;;;;;;0.43;0.25;;;;;;;16.98;100.00;99023.19;7390823;19;20036;-62
2023/08/26 11:08:12;;;;;;;0.63;0.35;;;;;;;17.86;100.00;99017.81;7392311;19;20010;-63
2023/08/26 11:10:40;;;;;;;0.15;0.10;;;;;;;16.23;100.00;99037.47;7393021;19;20033;-62
2023/08/26 11:13:07;;;;;;;0.20;0.15;;;;;;;15.87;100.00;99033.41;7391125;19;20422;-62
2023/08/26 11:15:39;;;;;;;1.48;0.45;;;;;;;15.34;100.00;99029.47;7392516;19;20033;-61
2023/08/26 11:18:10;;;;;;;0.55;0.50;;;;;;;15.14;100.00;99033.50;7392540;19;20022;-61
2023/08/26 11:20:37;;;;;;;1.42;0.52;;;;;;;14.87;100.00;99031.78;7392046;19;20509;-62
2023/08/26 11:23:05;;;;;;;0.30;0.20;;;;;;;14.73;100.00;99032.91;7396282;19;20124;-62
2023/08/26 11:25:33;;;;;;;0.88;0.82;;;;;;;14.49;100.00;99032.88;7391265;19;20347;-62
2023/08/26 11:28:04;;;;;;;0.32;0.13;;;;;;;14.29;100.00;99038.91;7392342;19;20078;-62
2023/08/26 11:30:35;;;;;;;2.13;0.82;;;;;;;14.46;100.00;99039.53;7392757;19;20021;-62